createdAt,value
2023-11-12T00:01:00.638Z,7.75
2023-11-12T00:03:27.968Z,8.05
2023-11-12T00:05:55.196Z,8.13
2023-11-12T00:08:22.884Z,8.50
2023-11-12T00:10:50.215Z,7.95
2023-11-12T00:13:17.559Z,8.25
2023-11-12T00:15:44.778Z,7.90
2023-11-12T00:18:12.438Z,7.50
2023-11-12T00:20:39.598Z,8.07
2023-11-12T00:23:09.863Z,7.70
2023-11-12T00:25:37.119Z,7.63
2023-11-12T00:28:04.362Z,7.93
2023-11-12T00:30:31.569Z,7.50
2023-11-12T00:32:58.891Z,7.53
2023-11-12T00:35:26.401Z,8.02
2023-11-12T00:37:54.409Z,6.50
2023-11-12T00:40:22.850Z,7.35
2023-11-12T00:42:50.085Z,7.15
2023-11-12T00:45:17.922Z,7.95
2023-11-12T00:47:45.945Z,7.35
2023-11-12T00:50:16.935Z,7.05
2023-11-12T00:52:44.902Z,7.55
2023-11-12T00:55:12.697Z,7.68
2023-11-12T00:57:39.874Z,7.13
2023-11-12T01:00:10.873Z,6.78
2023-11-12T01:02:38.147Z,7.18
2023-11-12T01:05:06.183Z,6.93
2023-11-12T01:07:33.689Z,6.75
2023-11-12T01:10:00.922Z,7.13
2023-11-12T01:12:28.901Z,7.20
2023-11-12T01:14:56.290Z,6.97
2023-11-12T01:17:23.565Z,7.30
2023-11-12T01:19:50.782Z,7.25
2023-11-12T01:22:18.255Z,6.85
2023-11-12T01:24:45.467Z,7.22
2023-11-12T01:27:12.736Z,7.13
2023-11-12T01:29:40.124Z,7.00
2023-11-12T01:32:07.663Z,6.95
2023-11-12T01:34:35.160Z,6.85
2023-11-12T01:37:02.537Z,6.90
2023-11-12T01:39:29.840Z,6.82
2023-11-12T01:41:57.212Z,6.97
2023-11-12T01:44:24.521Z,7.30
2023-11-12T01:46:52.696Z,7.10
2023-11-12T01:49:20.673Z,7.38
2023-11-12T01:51:48.589Z,7.65
2023-11-12T01:54:15.487Z,7.97
2023-11-12T01:56:42.985Z,7.13
2023-11-12T01:59:10.027Z,7.30
2023-11-12T02:01:37.198Z,7.07
2023-11-12T02:04:05.999Z,6.80
2023-11-12T02:06:33.497Z,6.60
2023-11-12T02:09:00.680Z,7.00
2023-11-12T02:11:28.135Z,6.90
2023-11-12T02:13:55.970Z,7.05
2023-11-12T02:16:24.481Z,6.22
2023-11-12T02:18:51.901Z,6.80
2023-11-12T02:21:25.962Z,6.90
2023-11-12T02:23:54.304Z,6.63
2023-11-12T02:26:21.694Z,7.18
2023-11-12T02:28:49.825Z,7.40
2023-11-12T02:31:17.234Z,7.05
2023-11-12T02:33:44.797Z,6.43
2023-11-12T02:36:13.175Z,7.28
2023-11-12T02:38:40.540Z,6.38
2023-11-12T02:41:11.008Z,6.43
2023-11-12T02:43:38.658Z,7.13
2023-11-12T02:46:06.014Z,6.32
2023-11-12T02:48:40.781Z,6.78
2023-11-12T02:51:08.116Z,6.32
2023-11-12T02:53:35.252Z,6.88
2023-11-12T02:56:02.425Z,6.57
2023-11-12T02:58:29.171Z,6.22
2023-11-12T03:00:57.319Z,6.15
2023-11-12T03:03:24.608Z,6.43
2023-11-12T03:05:51.816Z,6.38
2023-11-12T03:08:18.998Z,6.53
2023-11-12T03:10:47.110Z,6.82
2023-11-12T03:13:14.311Z,6.95
2023-11-12T03:15:44.409Z,7.07
2023-11-12T03:18:11.825Z,6.35
2023-11-12T03:20:38.988Z,7.20
2023-11-12T03:23:06.006Z,7.03
2023-11-12T03:25:33.331Z,7.18
2023-11-12T03:28:00.240Z,6.88
2023-11-12T03:30:27.557Z,6.68
2023-11-12T03:32:54.804Z,7.10
2023-11-12T03:35:22.240Z,6.75
2023-11-12T03:37:51.681Z,7.22
2023-11-12T03:40:19.240Z,7.30
2023-11-12T03:42:46.530Z,6.93
2023-11-12T03:45:13.912Z,6.80
2023-11-12T03:47:41.116Z,7.00
2023-11-12T03:50:09.346Z,7.13
2023-11-12T03:52:36.419Z,6.63
2023-11-12T03:55:06.891Z,6.85
2023-11-12T03:57:34.318Z,6.85
2023-11-12T04:00:01.600Z,6.97
2023-11-12T04:05:07.197Z,6.07
2023-11-12T04:07:34.496Z,6.28
2023-11-12T04:10:01.710Z,6.93
2023-11-12T04:12:28.926Z,6.53
2023-11-12T04:14:55.817Z,6.25
2023-11-12T04:17:23.837Z,6.15
2023-11-12T04:19:52.027Z,6.72
2023-11-12T04:22:19.396Z,6.10
2023-11-12T04:24:47.527Z,6.70
2023-11-12T04:27:15.298Z,6.55
2023-11-12T04:29:42.822Z,7.20
2023-11-12T04:32:09.988Z,7.40
2023-11-12T04:34:37.144Z,6.68
2023-11-12T04:37:04.349Z,7.03
2023-11-12T04:39:31.546Z,7.57
2023-11-12T04:41:58.717Z,7.30
2023-11-12T04:44:26.645Z,7.07
2023-11-12T04:46:53.864Z,7.60
2023-11-12T04:49:21.158Z,7.20
2023-11-12T04:51:48.522Z,7.25
2023-11-12T04:54:15.787Z,7.28
2023-11-12T04:56:46.822Z,7.07
2023-11-12T04:59:14.683Z,7.95
2023-11-12T05:01:41.813Z,7.72
2023-11-12T05:04:09.102Z,7.35
2023-11-12T05:06:36.657Z,7.28
2023-11-12T05:09:04.469Z,6.57
2023-11-12T05:11:31.713Z,7.30
2023-11-12T05:13:59.219Z,7.18
2023-11-12T05:16:26.520Z,7.75
2023-11-12T05:18:53.761Z,7.45
2023-11-12T05:21:21.029Z,7.38
2023-11-12T05:23:48.366Z,7.15
2023-11-12T05:26:15.667Z,8.23
2023-11-12T05:28:42.873Z,7.40
2023-11-12T05:31:11.783Z,7.97
2023-11-12T05:33:39.319Z,7.88
2023-11-12T05:36:07.672Z,9.13
2023-11-12T05:38:35.377Z,8.82
2023-11-12T05:41:03.461Z,8.18
2023-11-12T05:43:30.194Z,7.78
2023-11-12T05:45:57.314Z,9.10
2023-11-12T05:48:24.470Z,9.52
2023-11-12T05:50:51.680Z,10.23
2023-11-12T05:53:20.703Z,7.55
2023-11-12T05:55:47.811Z,6.72
2023-11-12T05:58:15.026Z,8.57
2023-11-12T06:00:42.162Z,6.32
2023-11-12T06:03:09.420Z,7.40
2023-11-12T06:05:36.697Z,7.05
2023-11-12T06:08:04.887Z,6.57
2023-11-12T06:10:32.699Z,6.40
2023-11-12T06:12:59.912Z,7.53
2023-11-12T06:15:28.428Z,6.68
2023-11-12T06:17:56.175Z,7.25
2023-11-12T06:20:25.010Z,7.22
2023-11-12T06:22:52.217Z,7.07
2023-11-12T06:25:19.470Z,7.80
2023-11-12T06:27:48.475Z,7.65
2023-11-12T06:30:17.478Z,7.45
2023-11-12T06:32:44.990Z,8.50
2023-11-12T06:35:12.132Z,7.05
2023-11-12T06:37:39.262Z,7.32
2023-11-12T06:40:07.926Z,7.35
2023-11-12T06:42:35.357Z,7.38
2023-11-12T06:45:03.285Z,7.68
2023-11-12T06:47:30.580Z,7.32
2023-11-12T06:49:58.113Z,7.78
2023-11-12T06:52:25.355Z,6.75
2023-11-12T06:54:52.761Z,7.40
2023-11-12T06:57:20.552Z,7.47
2023-11-12T06:59:48.243Z,7.80
2023-11-12T07:02:16.507Z,8.40
2023-11-12T07:04:43.794Z,8.40
2023-11-12T07:07:16.734Z,8.40
2023-11-12T07:09:47.412Z,7.82
2023-11-12T07:12:17.779Z,8.27
2023-11-12T07:14:45.029Z,9.38
2023-11-12T07:17:12.340Z,8.77
2023-11-12T07:19:39.529Z,9.25
2023-11-12T07:22:07.094Z,8.27
2023-11-12T07:24:36.895Z,8.88
2023-11-12T07:27:04.613Z,9.93
2023-11-12T07:29:31.763Z,8.90
2023-11-12T07:31:58.872Z,8.90
2023-11-12T07:34:25.968Z,8.93
2023-11-12T07:36:53.091Z,9.43
2023-11-12T07:39:21.539Z,9.20
2023-11-12T07:41:48.759Z,9.13
2023-11-12T07:44:23.564Z,8.48
2023-11-12T07:46:51.104Z,9.07
2023-11-12T07:49:18.716Z,8.90
2023-11-12T07:51:49.336Z,9.00
2023-11-12T07:54:16.891Z,8.77
2023-11-12T07:56:44.446Z,9.23
2023-11-12T07:59:11.865Z,10.02
2023-11-12T08:01:39.778Z,9.00
2023-11-12T08:04:10.113Z,9.75
2023-11-12T08:06:37.626Z,10.25
2023-11-12T08:09:04.966Z,11.45
2023-11-12T08:11:32.084Z,11.35
2023-11-12T08:14:02.146Z,10.82
2023-11-12T08:16:29.342Z,11.88
2023-11-12T08:18:56.571Z,10.73
2023-11-12T08:21:23.363Z,11.98
2023-11-12T08:23:50.577Z,10.93
2023-11-12T08:26:17.805Z,11.27
2023-11-12T08:28:44.962Z,11.32
2023-11-12T08:31:12.273Z,10.35
2023-11-12T08:33:39.974Z,12.20
2023-11-12T08:36:07.358Z,11.43
2023-11-12T08:38:36.572Z,13.15
2023-11-12T08:41:05.596Z,11.40
2023-11-12T08:43:33.594Z,12.73
2023-11-12T08:46:00.757Z,12.48
2023-11-12T08:48:32.847Z,11.93
2023-11-12T08:51:01.246Z,11.00
2023-11-12T08:53:28.826Z,11.73
2023-11-12T08:55:56.256Z,12.07
2023-11-12T08:58:26.189Z,12.43
2023-11-12T09:00:53.562Z,12.95
2023-11-12T09:03:21.016Z,12.70
2023-11-12T09:05:48.321Z,14.10
2023-11-12T09:08:15.470Z,12.52
2023-11-12T09:10:42.897Z,13.57
2023-11-12T09:13:13.340Z,13.30
2023-11-12T09:15:40.643Z,13.55
2023-11-12T09:18:07.922Z,14.07
2023-11-12T09:20:35.142Z,14.45
2023-11-12T09:23:02.450Z,12.43
2023-11-12T09:25:29.707Z,13.63
2023-11-12T09:27:57.116Z,14.75
2023-11-12T09:30:24.843Z,15.13
2023-11-12T09:32:52.091Z,14.30
2023-11-12T09:35:19.890Z,14.18
2023-11-12T09:37:47.110Z,14.30
2023-11-12T09:40:14.538Z,15.15
2023-11-12T09:42:44.930Z,14.35
2023-11-12T09:45:13.301Z,14.10
2023-11-12T09:48:04.443Z,15.02
2023-11-12T09:50:32.467Z,12.40
2023-11-12T09:53:04.297Z,13.77
2023-11-12T09:55:32.152Z,14.55
2023-11-12T09:58:03.048Z,13.50
2023-11-12T10:00:35.247Z,14.23
2023-11-12T10:03:08.493Z,13.45
2023-11-12T10:05:36.913Z,14.20
2023-11-12T10:08:06.388Z,14.32
2023-11-12T10:10:44.925Z,13.63
2023-11-12T10:13:13.938Z,13.57
2023-11-12T10:15:41.541Z,13.32
2023-11-12T10:18:08.850Z,14.07
2023-11-12T10:20:40.447Z,12.70
2023-11-12T10:23:30.218Z,13.95
2023-11-12T10:26:00.567Z,13.77
2023-11-12T10:28:35.117Z,13.25
2023-11-12T10:31:02.754Z,13.55
2023-11-12T10:33:30.218Z,13.77
2023-11-12T10:35:57.575Z,12.95
2023-11-12T10:38:25.119Z,13.38
2023-11-12T10:40:59.581Z,12.48
2023-11-12T10:43:28.690Z,12.77
2023-11-12T10:46:00.672Z,12.15
2023-11-12T10:48:31.580Z,13.05
2023-11-12T10:51:00.320Z,12.15
2023-11-12T10:53:32.239Z,11.90
2023-11-12T10:56:03.399Z,12.32
2023-11-12T10:58:31.507Z,11.30
2023-11-12T11:01:03.200Z,11.10
2023-11-12T11:03:35.201Z,11.02
2023-11-12T11:06:06.876Z,11.27
2023-11-12T11:08:37.461Z,11.13
2023-11-12T11:11:09.497Z,11.00
2023-11-12T11:13:38.553Z,10.23
2023-11-12T11:16:06.325Z,10.50
2023-11-12T11:18:34.179Z,11.50
2023-11-12T11:21:04.795Z,12.20
2023-11-12T11:23:42.480Z,11.48
2023-11-12T11:26:28.019Z,10.80
2023-11-12T11:29:10.795Z,12.02
2023-11-12T11:31:56.832Z,11.30
2023-11-12T11:34:40.337Z,10.82
2023-11-12T11:39:34.897Z,10.80
2023-11-12T11:42:08.182Z,11.38
2023-11-12T11:44:42.831Z,11.25
2023-11-12T11:47:16.814Z,9.93
2023-11-12T11:49:47.125Z,9.45
2023-11-12T11:52:18.526Z,10.13
2023-11-12T11:57:14.154Z,10.63
2023-11-12T11:59:42.422Z,10.57
2023-11-12T12:02:16.915Z,9.75
2023-11-12T12:04:51.211Z,8.32
2023-11-12T12:07:24.758Z,8.30
2023-11-12T12:09:54.724Z,8.25
2023-11-12T12:12:23.495Z,7.93
2023-11-12T12:14:51.063Z,9.73
2023-11-12T12:17:18.505Z,9.00
2023-11-12T12:19:45.903Z,11.27
2023-11-12T12:22:13.221Z,11.02
2023-11-12T12:24:40.492Z,10.90
2023-11-12T12:27:13.951Z,11.43
2023-11-12T12:29:47.019Z,9.82
2023-11-12T12:32:15.062Z,10.68
2023-11-12T12:34:44.620Z,11.18
2023-11-12T12:37:11.937Z,11.63
2023-11-12T12:39:49.546Z,11.02
2023-11-12T12:42:16.870Z,10.65
2023-11-12T12:44:48.160Z,10.32
2023-11-12T12:47:28.572Z,10.13
2023-11-12T12:49:55.790Z,9.90
2023-11-12T12:52:23.181Z,10.00
2023-11-12T12:54:53.124Z,9.30
2023-11-12T12:57:24.904Z,9.38
2023-11-12T12:59:52.218Z,9.27
2023-11-12T13:02:21.116Z,9.13
2023-11-12T13:04:51.054Z,8.75
2023-11-12T13:07:20.401Z,8.40
2023-11-12T13:09:47.624Z,7.85
2023-11-12T13:12:14.782Z,8.18
2023-11-12T13:14:42.355Z,8.80
2023-11-12T13:17:09.794Z,8.55
2023-11-12T13:19:37.121Z,9.27
2023-11-12T13:22:04.904Z,9.02
2023-11-12T13:24:34.999Z,8.82
2023-11-12T13:27:03.586Z,8.77
2023-11-12T13:29:30.814Z,7.90
2023-11-12T13:31:57.829Z,7.82
2023-11-12T13:34:25.335Z,8.27
2023-11-12T13:36:52.579Z,7.85
2023-11-12T13:39:19.902Z,7.57
2023-11-12T13:41:48.144Z,6.95
2023-11-12T13:44:16.421Z,6.85
2023-11-12T13:46:44.108Z,9.43
2023-11-12T13:49:11.902Z,7.97
2023-11-12T13:51:42.361Z,6.70
2023-11-12T13:54:11.588Z,7.90
2023-11-12T13:56:40.209Z,7.57
2023-11-12T13:59:09.974Z,7.45
2023-11-12T14:01:37.193Z,9.63
2023-11-12T14:04:08.709Z,7.97
2023-11-12T14:06:37.365Z,8.50
2023-11-12T14:09:04.669Z,7.03
2023-11-12T14:11:32.009Z,8.10
2023-11-12T14:13:59.211Z,8.13
2023-11-12T14:16:26.699Z,8.80
2023-11-12T14:18:54.749Z,8.82
2023-11-12T14:21:22.908Z,8.05
2023-11-12T14:23:52.959Z,9.32
2023-11-12T14:26:21.000Z,10.45
2023-11-12T14:28:50.326Z,9.90
2023-11-12T14:31:21.701Z,9.35
2023-11-12T14:33:50.565Z,9.25
2023-11-12T14:36:17.867Z,9.55
2023-11-12T14:38:45.097Z,9.80
2023-11-12T14:41:12.373Z,9.98
2023-11-12T14:43:41.058Z,10.07
2023-11-12T14:46:09.517Z,9.82
2023-11-12T14:48:36.790Z,10.18
2023-11-12T14:51:06.477Z,9.75
2023-11-12T14:53:33.988Z,10.38
2023-11-12T14:56:01.122Z,10.20
2023-11-12T14:58:28.349Z,9.82
2023-11-12T15:00:55.808Z,10.23
2023-11-12T15:03:26.152Z,9.50
2023-11-12T15:05:53.536Z,9.98
2023-11-12T15:08:20.821Z,10.27
2023-11-12T15:10:47.515Z,9.75
2023-11-12T15:13:15.425Z,9.88
2023-11-12T15:15:43.215Z,9.82
2023-11-12T15:18:14.120Z,8.88
2023-11-12T15:23:08.699Z,8.68
2023-11-12T15:25:35.900Z,7.78
2023-11-12T15:28:03.141Z,7.57
2023-11-12T15:30:30.386Z,8.15
2023-11-12T15:32:57.702Z,8.30
2023-11-12T15:35:24.906Z,8.48
2023-11-12T15:37:52.176Z,8.50
2023-11-12T15:40:20.845Z,9.50
2023-11-12T15:42:50.253Z,10.35
2023-11-12T15:45:18.185Z,9.85
2023-11-12T15:47:46.277Z,9.75
2023-11-12T15:50:13.952Z,9.85
2023-11-12T15:52:41.436Z,9.15
2023-11-12T15:55:09.514Z,9.27
2023-11-12T15:57:37.999Z,9.05
2023-11-12T16:00:09.238Z,8.55
2023-11-12T16:02:39.364Z,8.02
2023-11-12T16:05:07.087Z,8.88
2023-11-12T16:07:35.319Z,8.55
2023-11-12T16:10:03.069Z,8.50
2023-11-12T16:12:30.334Z,8.93
2023-11-12T16:14:57.527Z,8.52
2023-11-12T16:17:27.973Z,9.15
2023-11-12T16:19:57.510Z,8.57
2023-11-12T16:22:24.691Z,8.40
2023-11-12T16:24:53.134Z,7.80
2023-11-12T16:27:22.247Z,8.57
2023-11-12T16:29:50.425Z,8.65
2023-11-12T16:32:21.023Z,9.85
2023-11-12T16:34:49.680Z,8.40
2023-11-12T16:37:16.824Z,8.73
2023-11-12T16:39:44.295Z,8.48
2023-11-12T16:42:12.290Z,8.93
2023-11-12T16:44:40.197Z,8.73
2023-11-12T16:47:10.700Z,9.30
2023-11-12T16:49:38.584Z,8.55
2023-11-12T16:52:07.205Z,8.85
2023-11-12T16:54:35.766Z,8.85
2023-11-12T16:57:10.710Z,9.00
2023-11-12T16:59:41.888Z,9.55
2023-11-12T17:02:09.953Z,8.50
2023-11-12T17:04:49.027Z,6.90
2023-11-12T17:07:16.294Z,9.18
2023-11-12T17:09:43.862Z,9.43
2023-11-12T17:12:15.087Z,9.30
2023-11-12T17:14:43.003Z,9.18
2023-11-12T17:17:10.306Z,9.98
2023-11-12T17:19:37.486Z,9.15
2023-11-12T17:22:05.639Z,9.50
2023-11-12T17:24:33.124Z,10.52
2023-11-12T17:27:00.487Z,10.30
2023-11-12T17:29:28.250Z,10.50
2023-11-12T17:31:55.565Z,10.30
2023-11-12T17:34:22.767Z,8.98
2023-11-12T17:36:50.030Z,9.68
2023-11-12T17:39:17.657Z,8.27
2023-11-12T17:41:48.463Z,10.63
2023-11-12T17:44:16.187Z,9.32
2023-11-12T17:46:45.577Z,10.07
2023-11-12T17:49:13.530Z,8.30
2023-11-12T17:51:42.511Z,10.20
2023-11-12T17:54:09.771Z,10.45
2023-11-12T17:56:36.946Z,8.10
2023-11-12T17:59:04.127Z,10.15
2023-11-12T18:01:31.341Z,10.30
2023-11-12T18:04:00.727Z,9.77
2023-11-12T18:06:28.117Z,10.48
2023-11-12T18:08:55.333Z,9.32
2023-11-12T18:11:22.881Z,10.52
2023-11-12T18:13:50.264Z,10.70
2023-11-12T18:16:20.455Z,9.98
2023-11-12T18:18:48.941Z,9.52
2023-11-12T18:21:16.450Z,9.10
2023-11-12T18:23:44.603Z,9.48
2023-11-12T18:26:15.630Z,10.27
2023-11-12T18:28:44.048Z,9.63
2023-11-12T18:31:11.475Z,10.05
2023-11-12T18:33:38.962Z,9.77
2023-11-12T18:36:06.344Z,8.88
2023-11-12T18:38:34.827Z,7.85
2023-11-12T18:41:02.319Z,8.88
2023-11-12T18:43:29.559Z,10.23
2023-11-12T18:45:58.280Z,8.38
2023-11-12T18:48:25.553Z,9.98
2023-11-12T18:50:53.009Z,9.68
2023-11-12T18:53:25.114Z,11.23
2023-11-12T18:55:52.344Z,11.77
2023-11-12T18:58:19.841Z,11.23
2023-11-12T19:00:47.114Z,10.70
2023-11-12T19:03:14.459Z,10.63
2023-11-12T19:05:42.088Z,10.32
2023-11-12T19:08:14.527Z,9.60
2023-11-12T19:10:41.791Z,10.80
2023-11-12T19:13:12.177Z,11.20
2023-11-12T19:15:39.555Z,10.20
2023-11-12T19:18:07.726Z,10.50
2023-11-12T19:20:39.042Z,9.68
2023-11-12T19:23:06.483Z,10.52
2023-11-12T19:25:34.080Z,11.18
2023-11-12T19:28:04.745Z,11.48
2023-11-12T19:30:33.948Z,11.90
2023-11-12T19:33:03.033Z,11.10
2023-11-12T19:35:29.928Z,10.52
2023-11-12T19:37:57.784Z,10.88
2023-11-12T19:40:25.456Z,10.82
2023-11-12T19:42:53.306Z,8.85
2023-11-12T19:45:21.284Z,11.30
2023-11-12T19:47:55.631Z,11.02
2023-11-12T19:50:24.065Z,11.85
2023-11-12T19:52:51.573Z,10.77
2023-11-12T19:55:20.085Z,10.57
2023-11-12T19:57:52.702Z,10.45
2023-11-12T20:00:21.032Z,11.05
2023-11-12T20:02:51.063Z,10.45
2023-11-12T20:05:18.437Z,11.23
2023-11-12T20:07:45.637Z,10.48
2023-11-12T20:10:12.925Z,11.75
2023-11-12T20:12:40.235Z,10.32
2023-11-12T20:15:09.244Z,11.00
2023-11-12T20:17:36.909Z,9.70
2023-11-12T20:20:04.396Z,11.27
2023-11-12T20:22:32.904Z,11.45
2023-11-12T20:25:00.503Z,11.48
2023-11-12T20:27:27.831Z,10.38
2023-11-12T20:29:57.167Z,10.57
2023-11-12T20:32:24.458Z,10.73
2023-11-12T20:34:52.271Z,10.40
2023-11-12T20:37:20.235Z,11.60
2023-11-12T20:39:47.557Z,10.70
2023-11-12T20:42:15.571Z,10.68
2023-11-12T20:44:42.959Z,10.18
2023-11-12T20:47:13.426Z,9.57
2023-11-12T20:49:40.925Z,11.82
2023-11-12T20:52:09.696Z,10.02
2023-11-12T20:54:38.228Z,11.32
2023-11-12T20:57:07.154Z,11.02
2023-11-12T20:59:34.880Z,11.18
2023-11-12T21:02:10.378Z,11.85
2023-11-12T21:04:46.091Z,10.80
2023-11-12T21:07:13.814Z,11.75
2023-11-12T21:09:41.340Z,10.85
2023-11-12T21:12:09.149Z,11.65
2023-11-12T21:14:36.357Z,12.07
2023-11-12T21:17:03.611Z,10.77
2023-11-12T21:19:30.425Z,12.50
2023-11-12T21:21:57.610Z,12.63
2023-11-12T21:24:24.805Z,12.73
2023-11-12T21:26:52.226Z,12.43
2023-11-12T21:29:21.608Z,12.32
2023-11-12T21:31:50.200Z,12.50
2023-11-12T21:34:17.437Z,11.88
2023-11-12T21:36:44.697Z,12.35
2023-11-12T21:39:12.749Z,12.23
2023-11-12T21:41:40.058Z,12.25
2023-11-12T21:44:09.888Z,12.30
2023-11-12T21:46:37.651Z,12.60
2023-11-12T21:49:08.510Z,12.52
2023-11-12T21:51:35.655Z,12.25
2023-11-12T21:54:02.830Z,11.77
2023-11-12T21:56:30.127Z,11.73
2023-11-12T21:58:57.237Z,11.55
2023-11-12T22:01:24.846Z,11.95
2023-11-12T22:03:52.354Z,13.43
2023-11-12T22:06:20.152Z,11.02
2023-11-12T22:08:47.393Z,11.88
2023-11-12T22:11:14.681Z,12.38
2023-11-12T22:13:43.181Z,12.15
2023-11-12T22:16:10.459Z,11.63
2023-11-12T22:18:37.655Z,12.55
2023-11-12T22:21:06.434Z,11.05
2023-11-12T22:23:33.598Z,13.02
2023-11-12T22:26:00.865Z,12.43
2023-11-12T22:28:28.108Z,11.48
2023-11-12T22:30:55.271Z,13.68
2023-11-12T22:33:22.552Z,12.95
2023-11-12T22:35:49.728Z,12.02
2023-11-12T22:38:16.889Z,12.15
2023-11-12T22:40:44.110Z,12.05
2023-11-12T22:43:11.342Z,10.93
2023-11-12T22:45:38.906Z,12.50
2023-11-12T22:48:05.934Z,12.50
2023-11-12T22:50:33.178Z,12.88
2023-11-12T22:53:00.384Z,12.48
2023-11-12T22:55:27.559Z,13.27
2023-11-12T22:57:55.112Z,13.98
2023-11-12T23:00:40.842Z,11.60
2023-11-12T23:03:11.339Z,12.60
2023-11-12T23:05:38.590Z,12.18
2023-11-12T23:08:07.735Z,12.55
2023-11-12T23:10:38.734Z,13.48
2023-11-12T23:15:34.665Z,12.48
2023-11-12T23:18:01.940Z,13.30
2023-11-12T23:20:29.462Z,13.02
2023-11-12T23:22:56.693Z,10.63
2023-11-12T23:25:23.896Z,13.63
2023-11-12T23:27:52.096Z,13.52
2023-11-12T23:30:19.312Z,10.07
2023-11-12T23:32:46.097Z,13.30
2023-11-12T23:35:13.299Z,12.38
2023-11-12T23:37:40.576Z,11.98
2023-11-12T23:40:08.585Z,12.00
2023-11-12T23:42:37.761Z,13.38
2023-11-12T23:45:06.261Z,14.05
2023-11-12T23:47:33.527Z,12.75
2023-11-12T23:50:00.732Z,11.57
2023-11-12T23:52:27.884Z,12.98
2023-11-12T23:54:55.108Z,11.93
2023-11-12T23:57:22.269Z,11.43
2023-11-12T23:59:49.451Z,12.10
